.
WxDataArchive / Data Records for 2013-02-19
2013-02-18 February 2013 2013-02-20

Data Records for Tuesday, 19 February 2013

Time	Temp	Chill	HIndex	Humid	Dewpt	 Wind 	HiWind	WindDir	Rain 	Barom 
-----	----	-----	------	-----	-----	------	------	-------	-----	----- 
00:00	44.2	44.2	44.2	85	40.0	3	13	90	0.00	29.562 
00:05	44.3	41.5	44.3	86	40.4	5	11	90	0.01	29.562 
00:10	44.2	41.4	44.2	86	40.3	5	12	68	0.00	29.562 
00:15	44.2	42.2	44.2	86	40.3	4	7	68	0.00	29.554 
00:20	44.2	41.4	44.2	86	40.3	5	16	68	0.00	29.554 
00:25	44.2	42.2	44.2	85	40.0	4	10	90	0.00	29.554 
00:30	44.2	42.2	44.2	85	40.0	4	13	90	0.00	29.541 
00:35	44.3	44.3	44.3	85	40.1	3	7	68	0.00	29.541 
00:40	44.3	40.9	44.3	84	39.8	6	15	68	0.00	29.541 
00:45	44.3	44.3	44.3	84	39.8	3	9	45	0.00	29.538 
00:50	44.2	44.2	44.2	85	40.0	3	10	90	0.00	29.538 
00:55	44.2	42.2	44.2	85	40.0	4	10	90	0.01	29.538 
01:00	44.1	42.1	44.1	85	39.9	4	14	68	0.00	29.524 
01:05	44.1	42.1	44.1	85	39.9	4	10	90	0.00	29.524 
01:10	44.1	44.1	44.1	85	39.9	3	10	112	0.00	29.524 
01:15	43.9	43.9	43.9	86	40.0	3	11	248	0.00	29.514 
01:20	43.9	43.9	43.9	86	40.0	3	9	68	0.00	29.514 
01:25	43.8	43.8	43.8	87	40.2	3	8	90	0.00	29.514 
01:30	43.8	43.8	43.8	87	40.2	2	10	270	0.01	29.505 
01:35	43.6	43.6	43.6	88	40.3	3	10	90	0.00	29.505 
01:40	43.6	43.6	43.6	88	40.3	3	9	68	0.00	29.505 
01:45	43.6	43.6	43.6	88	40.3	3	8	90	0.00	29.493 
01:50	43.6	43.6	43.6	88	40.3	2	7	68	0.01	29.493 
01:55	43.6	43.6	43.6	88	40.3	3	14	68	0.00	29.493 
02:00	43.6	43.6	43.6	89	40.6	2	7	292	0.00	29.487 
02:05	43.8	43.8	43.8	89	40.8	3	7	45	0.00	29.487 
02:10	43.9	43.9	43.9	89	40.9	3	7	248	0.00	29.487 
02:15	43.9	43.9	43.9	89	40.9	3	9	248	0.00	29.475 
02:20	44.1	44.1	44.1	90	41.4	2	10	248	0.00	29.475 
02:25	44.1	44.1	44.1	90	41.4	3	7	248	0.01	29.475 
02:30	44.2	42.2	44.2	90	41.5	4	15	248	0.00	29.474 
02:35	44.3	41.5	44.3	90	41.6	5	12	248	0.00	29.474 
02:40	44.3	42.3	44.3	90	41.6	4	11	248	0.00	29.474 
02:45	43.3	39.1	43.3	87	39.7	7	15	248	0.00	29.502 
02:50	41.9	38.0	41.9	86	38.0	6	10	248	0.00	29.502 
02:55	40.8	36.7	40.8	86	36.9	6	13	270	0.00	29.502 
03:00	39.2	34.8	39.2	85	35.1	6	14	270	0.00	29.526 
03:05	37.6	32.9	37.6	84	33.2	6	13	270	0.00	29.526 
03:10	36.9	32.8	36.9	85	32.8	5	12	270	0.00	29.526 
03:15	36.3	31.4	36.3	85	32.2	6	11	270	0.00	29.551 
03:20	35.9	31.7	35.9	86	32.1	5	10	270	0.00	29.551 
03:25	35.6	35.6	35.6	86	31.8	3	7	270	0.00	29.551 
03:30	35.3	31.9	35.3	87	31.8	4	11	248	0.00	29.563 
03:35	35.0	31.5	35.0	87	31.5	4	10	270	0.00	29.563 
03:40	34.7	29.4	34.7	88	31.5	6	12	270	0.00	29.563 
03:45	34.3	29.8	34.3	88	31.1	5	10	248	0.00	29.570 
03:50	33.7	29.1	33.7	88	30.5	5	16	248	0.00	29.570 
03:55	33.4	29.7	33.4	88	30.2	4	12	248	0.00	29.570 
04:00	33.2	28.5	33.2	88	30.0	5	11	248	0.00	29.569 
04:05	33.1	28.4	33.1	88	29.9	5	9	270	0.00	29.569 
04:10	33.1	33.1	33.1	88	29.9	3	7	248	0.00	29.569 
04:15	32.8	27.2	32.8	88	29.6	6	19	248	0.00	29.579 
04:20	32.5	26.8	32.5	88	29.3	6	19	248	0.00	29.579 
04:25	32.2	28.3	32.2	88	29.1	4	6	248	0.00	29.579 
04:30	32.2	28.3	32.2	88	29.1	4	7	270	0.00	29.578 
04:35	32.2	28.3	32.2	88	29.1	4	9	248	0.00	29.578 
04:40	32.1	28.2	32.1	88	29.0	4	12	248	0.00	29.578 
04:45	31.5	25.6	31.5	88	28.4	6	12	270	0.00	29.582 
04:50	30.9	25.8	30.9	88	27.8	5	11	248	0.00	29.582 
04:55	30.4	23.6	30.4	88	27.3	7	18	248	0.00	29.582 
05:00	30.1	24.8	30.1	88	27.0	5	10	248	0.00	29.609 
05:05	29.7	23.5	29.7	87	26.3	6	17	248	0.00	29.609 
05:10	29.5	23.3	29.5	86	25.8	6	12	248	0.00	29.609 
05:15	29.3	22.2	29.3	86	25.6	7	15	270	0.00	29.626 
05:20	29.0	24.6	29.0	86	25.3	4	11	248	0.00	29.626 
05:25	28.8	28.8	28.8	86	25.2	3	9	270	0.00	29.626 
05:30	28.7	24.3	28.7	86	25.1	4	10	248	0.00	29.634 
05:35	28.5	24.0	28.5	86	24.9	4	13	270	0.00	29.634 
05:40	28.2	23.7	28.2	86	24.6	4	9	270	0.00	29.634 
05:45	28.1	23.6	28.1	86	24.5	4	9	248	0.00	29.648 
05:50	27.9	27.9	27.9	86	24.3	3	6	248	0.00	29.648 
05:55	27.9	23.3	27.9	86	24.3	4	11	248	0.00	29.648 
06:00	27.6	21.9	27.6	84	23.4	5	12	248	0.00	29.661 
06:05	27.0	21.2	27.0	83	22.5	5	17	248	0.00	29.661 
06:10	26.7	19.1	26.7	82	22.0	7	15	248	0.00	29.661 
06:15	26.6	19.8	26.6	81	21.6	6	14	248	0.00	29.673 
06:20	26.3	19.4	26.3	81	21.3	6	15	248	0.00	29.673 
06:25	26.0	20.0	26.0	80	20.7	5	12	248	0.00	29.673 
06:30	25.7	19.7	25.7	80	20.4	5	14	248	0.00	29.681 
06:35	25.4	18.4	25.4	79	19.8	6	13	248	0.00	29.681 
06:40	25.1	17.2	25.1	77	18.9	7	17	248	0.00	29.681 
06:45	24.8	18.6	24.8	77	18.6	5	12	248	0.00	29.692 
06:50	24.5	17.3	24.5	77	18.3	6	14	248	0.00	29.692 
06:55	24.2	19.1	24.2	77	18.1	4	10	270	0.00	29.692 
07:00	24.2	19.1	24.2	77	18.1	4	11	248	0.00	29.694 
07:05	24.2	17.9	24.2	77	18.1	5	13	270	0.00	29.694 
07:10	24.1	17.8	24.1	77	18.0	5	12	248	0.00	29.694 
07:15	23.9	16.6	23.9	75	17.2	6	12	270	0.00	29.699 
07:20	23.5	16.1	23.5	74	16.5	6	12	270	0.00	29.699 
07:25	23.2	15.8	23.2	74	16.2	6	16	270	0.00	29.699 
07:30	23.0	17.7	23.0	74	16.0	4	11	248	0.00	29.709 
07:35	22.9	14.5	22.9	74	15.9	7	14	248	0.00	29.709 
07:40	22.7	17.3	22.7	74	15.7	4	12	248	0.00	29.709 
07:45	22.7	16.2	22.7	75	16.0	5	10	248	0.00	29.717 
07:50	22.7	15.2	22.7	76	16.3	6	12	248	0.00	29.717 
07:55	22.5	17.1	22.5	76	16.1	4	14	248	0.00	29.717 
08:00	22.5	15.9	22.5	77	16.4	5	11	248	0.00	29.725 
08:05	22.4	17.0	22.4	77	16.3	4	12	248	0.00	29.725 
08:10	22.4	17.0	22.4	76	16.0	4	13	248	0.00	29.725 
08:15	22.5	14.9	22.5	75	15.8	6	19	248	0.00	29.735 
08:20	22.7	15.2	22.7	75	16.0	6	14	248	0.00	29.735 
08:25	22.9	15.4	22.9	74	15.9	6	17	248	0.00	29.735 
08:30	23.0	15.5	23.0	73	15.7	6	14	270	0.00	29.736 
08:35	23.0	15.5	23.0	73	15.7	6	18	248	0.00	29.736 
08:40	23.2	17.9	23.2	72	15.5	4	15	248	0.00	29.736 
08:45	23.5	18.3	23.5	72	15.8	4	11	248	0.00	29.733 
08:50	23.6	23.6	23.6	73	16.2	3	7	248	0.00	29.733 
08:55	23.6	18.4	23.6	73	16.2	4	11	248	0.00	29.733 
09:00	23.8	23.8	23.8	74	16.7	3	7	248	0.00	29.738 
09:05	23.6	17.2	23.6	73	16.2	5	12	248	0.00	29.738 
09:10	23.2	15.8	23.2	72	15.5	6	14	248	0.00	29.738 
09:15	23.0	15.5	23.0	71	15.0	6	14	248	0.00	29.752 
09:20	22.7	15.2	22.7	70	14.4	6	16	248	0.00	29.752 
09:25	22.7	17.3	22.7	71	14.7	4	10	248	0.00	29.752 
09:30	22.7	22.7	22.7	72	15.1	3	9	248	0.00	29.756 
09:35	22.7	22.7	22.7	72	15.1	3	6	248	0.00	29.756 
09:40	22.7	17.3	22.7	72	15.1	4	8	248	0.00	29.756 
09:45	22.4	14.8	22.4	71	14.4	6	17	248	0.00	29.759 
09:50	22.4	17.0	22.4	72	14.8	4	14	248	0.00	29.759 
09:55	22.2	16.8	22.2	72	14.6	4	9	248	0.00	29.759 
10:00	22.2	22.2	22.2	73	14.9	3	10	248	0.00	29.767 
10:05	22.2	16.8	22.2	74	15.2	4	13	248	0.00	29.767 
10:10	22.2	16.8	22.2	74	15.2	4	10	248	0.00	29.767 
10:15	22.2	16.8	22.2	75	15.5	4	10	248	0.00	29.769 
10:20	22.2	22.2	22.2	75	15.5	3	7	248	0.00	29.769 
10:25	22.4	17.0	22.4	76	16.0	4	9	248	0.00	29.769 
10:30	22.4	17.0	22.4	77	16.3	4	11	248	0.00	29.770 
10:35	22.2	16.8	22.2	78	16.4	4	7	270	0.00	29.770 
10:40	21.9	15.2	21.9	79	16.4	5	12	248	0.00	29.770 
10:45	21.8	14.1	21.8	76	15.4	6	16	248	0.00	29.776 
10:50	21.9	15.2	21.9	74	14.9	5	13	248	0.00	29.776 
10:55	21.9	14.2	21.9	71	14.0	6	15	248	0.00	29.776 
11:00	22.1	14.4	22.1	71	14.2	6	12	270	0.00	29.785 
11:05	21.9	14.2	21.9	70	13.6	6	13	270	0.00	29.785 
11:10	21.8	15.1	21.8	69	13.2	5	10	270	0.00	29.785 
11:15	21.6	16.1	21.6	68	12.7	4	9	248	0.00	29.797 
11:20	21.9	14.2	21.9	67	12.7	6	14	270	0.00	29.797 
11:25	22.1	15.4	22.1	66	12.5	5	12	248	0.00	29.797 
11:30	22.1	15.4	22.1	66	12.5	5	13	248	0.00	29.804 
11:35	21.6	13.8	21.6	65	11.7	6	12	270	0.00	29.804 
11:40	21.3	13.5	21.3	65	11.4	6	11	270	0.00	29.804 
11:45	21.3	13.5	21.3	66	11.7	6	13	248	0.00	29.806 
11:50	21.3	15.7	21.3	68	12.4	4	11	248	0.00	29.806 
11:55	21.4	14.6	21.4	69	12.8	5	11	248	0.00	29.806 
12:00	21.6	14.9	21.6	66	12.0	5	11	270	0.00	29.812 
12:05	21.6	14.9	21.6	67	12.4	5	10	270	0.00	29.812 
12:10	21.4	15.8	21.4	69	12.8	4	11	248	0.00	29.812 
12:15	21.3	15.7	21.3	69	12.7	4	11	248	0.00	29.819 
12:20	20.6	12.7	20.6	68	11.7	6	14	270	0.00	29.819 
12:25	20.5	13.6	20.5	69	12.0	5	13	270	0.00	29.819 
12:30	20.5	13.6	20.5	68	11.6	5	11	270	0.00	29.820 
12:35	20.6	13.7	20.6	67	11.4	5	13	270	0.00	29.820 
12:40	20.6	12.7	20.6	67	11.4	6	13	270	0.00	29.820 
12:45	20.8	15.1	20.8	68	11.9	4	12	270	0.00	29.826 
12:50	20.8	13.9	20.8	67	11.6	5	10	270	0.00	29.826 
12:55	20.8	12.0	20.8	65	10.9	7	15	270	0.00	29.826 
13:00	21.1	13.2	21.1	65	11.2	6	11	270	0.00	29.819 
13:05	21.4	14.6	21.4	65	11.5	5	10	248	0.00	29.819 
13:10	21.8	16.3	21.8	66	12.2	4	10	248	0.00	29.819 
13:15	21.9	16.4	21.9	66	12.3	4	10	248	0.00	29.819 
13:20	21.9	15.2	21.9	65	12.0	5	11	270	0.00	29.819 
13:25	21.9	14.2	21.9	66	12.3	6	13	270	0.00	29.819 
13:30	22.1	15.4	22.1	66	12.5	5	14	270	0.00	29.819 
13:35	22.1	15.4	22.1	68	13.2	5	11	270	0.00	29.819 
13:40	22.2	16.8	22.2	70	13.9	4	11	270	0.00	29.819 
13:45	22.1	16.6	22.1	69	13.5	4	7	270	0.00	29.824 
13:50	21.9	15.2	21.9	69	13.3	5	9	270	0.00	29.824 
13:55	21.6	14.9	21.6	69	13.0	5	12	270	0.00	29.824 
14:00	21.3	13.5	21.3	68	12.4	6	13	270	0.00	29.828 
14:05	21.3	14.5	21.3	68	12.4	5	10	248	0.00	29.828 
14:10	21.1	15.5	21.1	69	12.5	4	7	248	0.00	29.828 
14:15	20.8	13.9	20.8	71	12.9	5	13	248	0.00	29.842 
14:20	20.5	13.6	20.5	71	12.6	5	11	248	0.00	29.842 
14:25	20.3	13.3	20.3	71	12.4	5	11	248	0.00	29.842 
14:30	20.0	14.2	20.0	69	11.5	4	10	270	0.00	29.856 
14:35	19.9	12.9	19.9	68	11.1	5	10	270	0.00	29.856 
14:40	19.9	12.9	19.9	68	11.1	5	13	270	0.00	29.856 
14:45	19.7	12.6	19.7	68	10.9	5	10	270	0.00	29.867 
14:50	19.4	12.3	19.4	69	10.9	5	10	270	0.00	29.867 
14:55	19.4	12.3	19.4	69	10.9	5	11	270	0.00	29.867 
15:00	18.9	10.6	18.9	70	10.8	6	15	270	0.00	29.875 
15:05	19.1	11.9	19.1	68	10.3	5	10	270	0.00	29.875 
15:10	19.2	12.0	19.2	66	9.7	5	10	248	0.00	29.875 
15:15	19.4	12.3	19.4	65	9.6	5	13	270	0.00	29.888 
15:20	19.2	11.0	19.2	64	9.0	6	13	270	0.00	29.888 
15:25	19.4	19.4	19.4	66	9.9	3	6	248	0.00	29.888 
15:30	19.7	19.7	19.7	69	11.2	3	7	248	0.00	29.895 
15:35	19.1	13.2	19.1	72	11.6	4	9	270	0.00	29.895 
15:40	18.8	12.8	18.8	74	11.9	4	8	248	0.00	29.895 
15:45	18.4	12.4	18.4	76	12.1	4	11	248	0.00	29.909 
15:50	18.4	18.4	18.4	77	12.4	3	12	248	0.00	29.909 
15:55	18.4	12.4	18.4	75	11.8	4	13	248	0.00	29.909 
16:00	18.4	11.1	18.4	71	10.6	5	12	270	0.00	29.912 
16:05	18.6	11.3	18.6	69	10.2	5	10	270	0.00	29.912 
16:10	18.8	11.6	18.8	66	9.4	5	11	270	0.00	29.912 
16:15	18.8	11.6	18.8	65	9.0	5	15	270	0.00	29.928 
16:20	18.8	11.6	18.8	65	9.0	5	11	270	0.00	29.928 
16:25	18.9	12.9	18.9	65	9.1	4	10	248	0.00	29.928 
16:30	18.9	11.7	18.9	65	9.1	5	11	270	0.00	29.932 
16:35	18.8	12.8	18.8	64	8.7	4	10	270	0.00	29.932 
16:40	18.8	11.6	18.8	62	8.0	5	11	248	0.00	29.932 
16:45	18.8	11.6	18.8	61	7.6	5	13	248	0.00	29.944 
16:50	18.8	12.8	18.8	62	8.0	4	12	248	0.00	29.944 
16:55	18.8	12.8	18.8	63	8.3	4	12	270	0.00	29.944 
17:00	18.6	18.6	18.6	65	8.8	3	5	248	0.00	29.953 
17:05	18.6	18.6	18.6	67	9.5	3	7	248	0.00	29.953 
17:10	18.4	18.4	18.4	67	9.3	3	7	270	0.00	29.953 
17:15	18.3	12.3	18.3	69	9.9	4	9	270	0.00	29.965 
17:20	18.0	18.0	18.0	69	9.6	3	9	248	0.00	29.965 
17:25	17.7	11.6	17.7	73	10.5	4	6	270	0.00	29.965 
17:30	17.3	17.3	17.3	75	10.8	2	7	248	0.00	29.979 
17:35	17.0	17.0	17.0	77	11.1	3	11	248	0.00	29.979 
17:40	16.7	16.7	16.7	79	11.3	3	8	248	0.00	29.979 
17:45	16.4	16.4	16.4	80	11.3	2	4	248	0.00	29.991 
17:50	16.4	16.4	16.4	81	11.6	2	6	248	0.00	29.991 
17:55	16.2	16.2	16.2	81	11.4	2	5	248	0.00	29.991 
18:00	16.2	16.2	16.2	82	11.7	2	4	248	0.00	29.997 
18:05	16.2	16.2	16.2	82	11.7	2	7	248	0.00	29.997 
18:10	16.1	16.1	16.1	82	11.6	3	7	248	0.00	29.997 
18:15	15.9	15.9	15.9	82	11.4	2	6	270	0.00	30.012 
18:20	15.9	15.9	15.9	82	11.4	2	4	248	0.00	30.012 
18:25	15.9	15.9	15.9	82	11.4	2	5	248	0.00	30.012 
18:30	15.7	15.7	15.7	82	11.2	3	7	248	0.00	30.022 
18:35	15.7	15.7	15.7	81	10.9	2	5	248	0.00	30.022 
18:40	15.7	15.7	15.7	81	10.9	3	6	248	0.00	30.022 
18:45	15.7	15.7	15.7	81	10.9	3	5	270	0.00	30.028 
18:50	15.6	15.6	15.6	81	10.8	3	6	270	0.00	30.028 
18:55	15.6	15.6	15.6	81	10.8	3	6	248	0.00	30.028 
19:00	15.6	15.6	15.6	81	10.8	3	6	248	0.00	30.034 
19:05	15.6	15.6	15.6	80	10.6	3	6	248	0.00	30.034 
19:10	15.4	15.4	15.4	79	10.1	3	6	248	0.00	30.034 
19:15	15.4	15.4	15.4	79	10.1	3	6	248	0.00	30.044 
19:20	15.4	8.9	15.4	78	9.8	4	6	270	0.00	30.044 
19:25	15.4	15.4	15.4	78	9.8	3	5	270	0.00	30.044 
19:30	15.4	15.4	15.4	77	9.5	3	7	270	0.00	30.048 
19:35	15.2	15.2	15.2	76	9.0	3	9	248	0.00	30.048 
19:40	15.2	15.2	15.2	75	8.7	3	7	248	0.00	30.048 
19:45	15.2	8.7	15.2	74	8.4	4	6	248	0.00	30.050 
19:50	15.2	8.7	15.2	73	8.1	4	11	248	0.00	30.050 
19:55	15.2	8.7	15.2	72	7.8	4	10	270	0.00	30.050 
20:00	15.1	8.6	15.1	72	7.7	4	11	270	0.00	30.051 
20:05	15.2	8.7	15.2	72	7.8	4	8	248	0.00	30.051 
20:10	15.2	15.2	15.2	72	7.8	3	6	248	0.00	30.051 
20:15	15.4	15.4	15.4	72	8.0	3	7	248	0.00	30.062 
20:20	15.2	15.2	15.2	73	8.1	2	6	270	0.00	30.062 
20:25	15.4	15.4	15.4	73	8.3	2	4	270	0.00	30.062 
20:30	15.4	15.4	15.4	74	8.6	1	5	270	0.00	30.064 
20:35	15.4	15.4	15.4	74	8.6	2	5	270	0.00	30.064 
20:40	15.4	15.4	15.4	75	8.9	3	5	248	0.00	30.064 
20:45	15.4	15.4	15.4	75	8.9	2	5	248	0.00	30.066 
20:50	15.4	15.4	15.4	75	8.9	2	6	248	0.00	30.066 
20:55	15.4	15.4	15.4	74	8.6	2	4	248	0.00	30.066 
21:00	15.6	15.6	15.6	74	8.8	2	5	248	0.00	30.068 
21:05	15.6	15.6	15.6	74	8.8	3	9	248	0.00	30.068 
21:10	15.6	15.6	15.6	73	8.5	3	5	248	0.00	30.068 
21:15	15.6	15.6	15.6	73	8.5	3	6	270	0.00	30.079 
21:20	15.6	15.6	15.6	72	8.2	3	6	270	0.00	30.079 
21:25	15.6	15.6	15.6	71	7.9	2	4	270	0.00	30.079 
21:30	15.6	15.6	15.6	70	7.6	2	6	248	0.00	30.079 
21:35	15.4	15.4	15.4	69	7.1	3	6	248	0.00	30.079 
21:40	15.4	15.4	15.4	69	7.1	3	6	248	0.00	30.079 
21:45	15.4	15.4	15.4	69	7.1	3	9	270	0.00	30.082 
21:50	15.6	15.6	15.6	69	7.3	3	12	248	0.00	30.082 
21:55	15.6	15.6	15.6	69	7.3	3	9	270	0.00	30.082 
22:00	15.7	15.7	15.7	69	7.4	2	9	248	0.00	30.084 
22:05	15.7	15.7	15.7	69	7.4	2	6	270	0.00	30.084 
22:10	15.7	15.7	15.7	68	7.0	3	7	248	0.00	30.084 
22:15	15.9	15.9	15.9	68	7.2	3	9	248	0.00	30.087 
22:20	15.9	15.9	15.9	67	6.9	3	7	248	0.00	30.087 
22:25	15.9	15.9	15.9	66	6.6	3	5	248	0.00	30.087 
22:30	15.9	15.9	15.9	66	6.6	3	10	248	0.00	30.090 
22:35	15.9	15.9	15.9	66	6.6	3	6	248	0.00	30.090 
22:40	15.9	15.9	15.9	66	6.6	2	5	270	0.00	30.090 
22:45	15.9	15.9	15.9	65	6.2	2	6	248	0.00	30.093 
22:50	15.9	15.9	15.9	65	6.2	3	6	248	0.00	30.093 
22:55	16.1	16.1	16.1	65	6.4	3	6	248	0.00	30.093 
23:00	16.1	16.1	16.1	65	6.4	2	4	248	0.00	30.095 
23:05	16.1	16.1	16.1	65	6.4	2	5	248	0.00	30.095 
23:10	16.1	16.1	16.1	65	6.4	3	7	248	0.00	30.095 
23:15	15.9	15.9	15.9	65	6.2	3	6	248	0.00	30.095 
23:20	15.9	15.9	15.9	66	6.6	3	10	248	0.00	30.095 
23:25	15.9	15.9	15.9	66	6.6	2	5	248	0.00	30.095 
23:30	15.7	15.7	15.7	67	6.7	2	7	248	0.00	30.093 
23:35	15.7	15.7	15.7	67	6.7	2	7	248	0.00	30.093 
23:40	15.7	15.7	15.7	67	6.7	2	3	270	0.00	30.093 
23:45	15.7	15.7	15.7	68	7.0	3	9	248	0.00	30.090 
23:50	15.7	15.7	15.7	67	6.7	2	6	248	0.00	30.090 
23:55	15.7	15.7	15.7	66	6.4	3	6	248	0.00	30.090 

CoCoRaHS
IN-AL-39
A2 Web Hosting
Creative Commons License
GoDaddy
search engine by freefind advanced

loaded 2018-11-13 02:47:33 • last modified 2010-11-18 10:43:29
Privacy PolicyDisclaimer
• wx.awcolley.com is powered by PmWiki v.2002016 •
• all content (unless otherwise noted) © 2018 A W Colley